createdAt,value
2023-10-30T00:02:10.775Z,13.49
2023-10-30T00:04:38.367Z,13.03
2023-10-30T00:07:05.936Z,13.15
2023-10-30T00:09:33.762Z,13.23
2023-10-30T00:12:01.958Z,13.33
2023-10-30T00:14:29.556Z,13.44
2023-10-30T00:16:57.429Z,13.62
2023-10-30T00:19:26.706Z,13.42
2023-10-30T00:21:54.248Z,12.22
2023-10-30T00:24:24.929Z,12.98
2023-10-30T00:26:53.726Z,13.15
2023-10-30T00:29:21.305Z,13.29
2023-10-30T00:31:48.872Z,12.94
2023-10-30T00:34:16.724Z,13.12
2023-10-30T00:36:45.633Z,13.40
2023-10-30T00:39:13.413Z,13.27
2023-10-30T00:41:41.030Z,13.48
2023-10-30T00:44:08.562Z,13.10
2023-10-30T00:46:36.214Z,13.09
2023-10-30T00:49:03.973Z,13.53
2023-10-30T00:51:31.543Z,13.63
2023-10-30T00:54:00.481Z,13.70
2023-10-30T00:56:28.054Z,13.73
2023-10-30T00:58:55.617Z,13.57
2023-10-30T01:01:24.267Z,13.72
2023-10-30T01:03:52.015Z,13.80
2023-10-30T01:06:20.640Z,13.73
2023-10-30T01:08:48.202Z,13.70
2023-10-30T01:11:17.093Z,13.62
2023-10-30T01:13:44.656Z,13.45
2023-10-30T01:16:12.265Z,13.59
2023-10-30T01:18:40.128Z,13.48
2023-10-30T01:21:10.454Z,13.54
2023-10-30T01:23:38.025Z,13.55
2023-10-30T01:26:06.140Z,13.61
2023-10-30T01:28:35.089Z,13.52
2023-10-30T01:31:02.623Z,13.28
2023-10-30T01:33:30.357Z,13.23
2023-10-30T01:35:57.932Z,13.34
2023-10-30T01:38:25.670Z,12.64
2023-10-30T01:40:53.683Z,12.86
2023-10-30T01:43:29.821Z,13.03
2023-10-30T01:45:58.883Z,13.15
2023-10-30T01:48:27.449Z,13.20
2023-10-30T01:50:55.594Z,12.93
2023-10-30T01:53:23.661Z,12.82
2023-10-30T01:55:53.395Z,12.61
2023-10-30T01:58:21.291Z,12.02
2023-10-30T02:00:49.025Z,12.70
2023-10-30T02:03:18.376Z,12.73
2023-10-30T02:05:46.062Z,12.82
2023-10-30T02:08:14.631Z,12.91
2023-10-30T02:10:42.239Z,12.88
2023-10-30T02:13:10.474Z,12.89
2023-10-30T02:15:38.342Z,12.86
2023-10-30T02:18:06.248Z,12.76
2023-10-30T02:20:35.367Z,12.69
2023-10-30T02:23:03.051Z,12.42
2023-10-30T02:25:33.450Z,12.56
2023-10-30T02:28:01.636Z,12.43
2023-10-30T02:30:29.223Z,12.28
2023-10-30T02:32:56.889Z,11.96
2023-10-30T02:35:24.586Z,11.38
2023-10-30T02:37:52.180Z,11.94
2023-10-30T02:40:19.726Z,12.19
2023-10-30T02:42:48.657Z,12.21
2023-10-30T02:45:16.248Z,10.72
2023-10-30T02:47:43.877Z,11.75
2023-10-30T02:50:11.850Z,12.01
2023-10-30T02:52:39.422Z,12.27
2023-10-30T02:55:07.860Z,12.00
2023-10-30T02:57:35.428Z,11.92
2023-10-30T03:00:04.964Z,12.20
2023-10-30T03:02:32.543Z,12.24
2023-10-30T03:05:00.180Z,12.23
2023-10-30T03:07:27.830Z,11.69
2023-10-30T03:09:55.600Z,11.79
2023-10-30T03:12:23.216Z,11.88
2023-10-30T03:14:50.751Z,11.82
2023-10-30T03:17:19.676Z,11.36
2023-10-30T03:19:47.398Z,11.64
2023-10-30T03:22:15.077Z,11.69
2023-10-30T03:24:42.650Z,11.64
2023-10-30T03:27:10.240Z,11.39
2023-10-30T03:29:38.440Z,11.45
2023-10-30T03:32:06.394Z,11.56
2023-10-30T03:34:36.453Z,11.57
2023-10-30T03:37:04.093Z,11.44
2023-10-30T03:39:31.741Z,11.44
2023-10-30T03:41:59.304Z,11.25
2023-10-30T03:44:27.588Z,11.36
2023-10-30T03:46:55.255Z,11.32
2023-10-30T03:49:23.198Z,11.30
2023-10-30T03:51:52.818Z,11.16
2023-10-30T03:54:23.207Z,11.23
2023-10-30T03:56:50.785Z,11.34
2023-10-30T03:59:18.399Z,11.01
2023-10-30T04:01:46.069Z,10.83
2023-10-30T04:04:13.755Z,10.91
2023-10-30T04:06:41.487Z,10.91
2023-10-30T04:09:10.407Z,10.83
2023-10-30T04:11:38.179Z,10.82
2023-10-30T04:14:05.801Z,10.88
2023-10-30T04:16:33.505Z,11.02
2023-10-30T04:19:01.092Z,10.94
2023-10-30T04:21:30.086Z,10.85
2023-10-30T04:23:58.590Z,10.85
2023-10-30T04:26:27.772Z,10.87
2023-10-30T04:28:55.361Z,10.69
2023-10-30T04:31:22.962Z,10.33
2023-10-30T04:33:51.236Z,10.67
2023-10-30T04:36:18.964Z,10.83
2023-10-30T04:38:46.519Z,10.88
2023-10-30T04:41:14.087Z,10.86
2023-10-30T04:43:43.000Z,10.63
2023-10-30T04:46:10.538Z,10.77
2023-10-30T04:48:38.474Z,10.74
2023-10-30T04:51:06.388Z,10.71
2023-10-30T04:53:33.940Z,10.69
2023-10-30T04:56:03.220Z,10.66
2023-10-30T04:58:30.797Z,10.22
2023-10-30T05:01:00.170Z,10.18
2023-10-30T05:03:27.752Z,10.18
2023-10-30T05:05:55.392Z,10.36
2023-10-30T05:08:22.938Z,9.59
2023-10-30T05:10:50.474Z,10.02
2023-10-30T05:13:18.014Z,10.10
2023-10-30T05:15:45.727Z,10.32
2023-10-30T05:18:15.230Z,9.52
2023-10-30T05:20:42.823Z,10.08
2023-10-30T05:23:10.357Z,9.92
2023-10-30T05:25:42.839Z,10.30
2023-10-30T05:28:11.203Z,10.09
2023-10-30T05:30:39.056Z,10.25
2023-10-30T05:33:06.902Z,10.21
2023-10-30T05:35:35.810Z,10.28
2023-10-30T05:38:05.279Z,10.26
2023-10-30T05:40:32.911Z,10.35
2023-10-30T05:43:00.440Z,10.01
2023-10-30T05:45:28.006Z,9.96
2023-10-30T05:47:55.665Z,10.17
2023-10-30T05:50:23.214Z,10.18
2023-10-30T05:52:52.066Z,10.06
2023-10-30T05:55:19.600Z,10.11
2023-10-30T05:57:47.247Z,9.96
2023-10-30T06:00:16.623Z,10.02
2023-10-30T06:02:44.323Z,10.04
2023-10-30T06:05:15.429Z,9.96
2023-10-30T06:07:44.207Z,10.06
2023-10-30T06:10:13.479Z,10.18
2023-10-30T06:12:41.276Z,9.89
2023-10-30T06:15:10.933Z,10.05
2023-10-30T06:17:38.477Z,10.17
2023-10-30T06:20:08.110Z,10.14
2023-10-30T06:22:35.908Z,10.08
2023-10-30T06:25:03.543Z,9.87
2023-10-30T06:27:33.373Z,9.94
2023-10-30T06:30:00.971Z,10.11
2023-10-30T06:32:28.735Z,10.16
2023-10-30T06:34:56.386Z,10.07
2023-10-30T06:37:24.000Z,10.11
2023-10-30T06:39:51.648Z,10.11
2023-10-30T06:42:19.242Z,9.90
2023-10-30T06:44:48.379Z,10.15
2023-10-30T06:47:16.119Z,10.19
2023-10-30T06:49:43.668Z,10.30
2023-10-30T06:52:11.981Z,10.36
2023-10-30T06:54:39.918Z,10.46
2023-10-30T06:57:07.575Z,10.48
2023-10-30T06:59:35.141Z,10.56
2023-10-30T07:02:04.394Z,10.73
2023-10-30T07:04:32.199Z,10.87
2023-10-30T07:06:59.789Z,10.95
2023-10-30T07:09:27.390Z,10.97
2023-10-30T07:11:54.969Z,11.13
2023-10-30T07:14:22.685Z,11.30
2023-10-30T07:17:03.012Z,11.43
2023-10-30T07:19:33.135Z,11.83
2023-10-30T07:22:03.025Z,12.62
2023-10-30T07:24:30.702Z,13.22
2023-10-30T07:26:59.315Z,14.30
2023-10-30T07:29:26.902Z,15.57
2023-10-30T07:31:56.335Z,17.00
2023-10-30T07:34:23.946Z,18.00
2023-10-30T07:36:53.010Z,18.78
2023-10-30T07:39:20.599Z,19.40
2023-10-30T07:41:48.215Z,20.19
2023-10-30T07:44:15.740Z,20.89
2023-10-30T07:46:43.353Z,21.32
2023-10-30T07:49:11.111Z,21.03
2023-10-30T07:51:38.800Z,21.85
2023-10-30T07:54:08.200Z,22.48
2023-10-30T07:56:35.738Z,22.94
2023-10-30T07:59:03.300Z,23.51
2023-10-30T08:01:31.034Z,24.19
2023-10-30T08:03:58.757Z,24.81
2023-10-30T08:06:26.398Z,25.34
2023-10-30T08:08:54.175Z,25.64
2023-10-30T08:11:23.030Z,25.99
2023-10-30T08:13:50.639Z,26.35
2023-10-30T08:16:18.180Z,26.93
2023-10-30T08:18:45.910Z,27.67
2023-10-30T08:21:14.684Z,28.20
2023-10-30T08:23:42.215Z,28.31
2023-10-30T08:26:09.809Z,28.07
2023-10-30T08:28:38.670Z,27.98
2023-10-30T08:31:06.690Z,28.14
2023-10-30T08:33:34.312Z,27.85
2023-10-30T08:36:01.860Z,27.40
2023-10-30T08:38:29.419Z,26.77
2023-10-30T08:40:57.071Z,26.44
2023-10-30T08:43:24.588Z,26.51
2023-10-30T08:45:53.554Z,24.36
2023-10-30T08:48:21.192Z,25.38
2023-10-30T08:50:48.802Z,26.27
2023-10-30T08:53:16.554Z,26.81
2023-10-30T08:55:44.261Z,26.82
2023-10-30T08:58:11.850Z,26.44
2023-10-30T09:00:39.451Z,24.99
2023-10-30T09:03:08.465Z,23.44
2023-10-30T09:05:36.216Z,22.07
2023-10-30T09:08:04.026Z,21.38
2023-10-30T09:10:33.690Z,21.14
2023-10-30T09:13:01.466Z,21.20
2023-10-30T09:15:29.723Z,21.58
2023-10-30T09:17:57.335Z,22.09
2023-10-30T09:20:26.283Z,22.38
2023-10-30T09:22:53.922Z,22.44
2023-10-30T09:25:23.069Z,21.34
2023-10-30T09:27:51.449Z,20.69
2023-10-30T09:30:20.286Z,20.61
2023-10-30T09:32:48.017Z,20.65
2023-10-30T09:35:15.834Z,20.61
2023-10-30T09:37:44.733Z,20.54
2023-10-30T09:40:13.332Z,20.97
2023-10-30T09:42:51.417Z,21.15
2023-10-30T09:45:20.626Z,20.89
2023-10-30T09:47:49.308Z,21.48
2023-10-30T09:50:18.130Z,21.43
2023-10-30T09:52:49.686Z,21.19
2023-10-30T09:55:19.750Z,21.38
2023-10-30T09:57:49.881Z,21.68
2023-10-30T10:00:18.413Z,21.64
2023-10-30T10:02:46.480Z,20.65
2023-10-30T10:05:15.297Z,19.42
2023-10-30T10:07:43.118Z,19.88
2023-10-30T10:10:13.376Z,20.67
2023-10-30T10:12:41.011Z,21.88
2023-10-30T10:15:09.639Z,22.15
2023-10-30T10:17:45.936Z,23.13
2023-10-30T10:20:14.271Z,23.75
2023-10-30T10:22:42.179Z,23.63
2023-10-30T10:25:11.853Z,23.98
2023-10-30T10:27:41.848Z,23.86
2023-10-30T10:30:11.021Z,23.98
2023-10-30T10:32:39.248Z,23.83
2023-10-30T10:35:08.406Z,23.45
2023-10-30T10:37:36.040Z,23.15
2023-10-30T10:40:06.863Z,22.84
2023-10-30T10:42:34.849Z,22.83
2023-10-30T10:45:04.362Z,22.95
2023-10-30T10:47:31.957Z,21.80
2023-10-30T10:49:59.986Z,21.56
2023-10-30T10:52:31.859Z,21.27
2023-10-30T10:55:03.548Z,21.20
2023-10-30T10:57:37.131Z,20.90
2023-10-30T11:00:10.449Z,21.22
2023-10-30T11:02:41.060Z,21.14
2023-10-30T11:05:10.543Z,20.78
2023-10-30T11:07:43.536Z,20.62
2023-10-30T11:10:19.019Z,19.94
2023-10-30T11:13:01.061Z,19.93
2023-10-30T11:15:32.436Z,20.40
2023-10-30T11:18:17.893Z,19.90
2023-10-30T11:20:46.382Z,19.98
2023-10-30T11:23:14.744Z,20.39
2023-10-30T11:25:48.052Z,20.13
2023-10-30T11:28:15.890Z,20.12
2023-10-30T11:30:46.183Z,19.95
2023-10-30T11:33:21.221Z,20.21
2023-10-30T11:35:53.902Z,19.87
2023-10-30T11:38:22.529Z,19.39
2023-10-30T11:41:08.892Z,19.03
2023-10-30T11:43:36.489Z,18.77
2023-10-30T11:46:07.946Z,18.72
2023-10-30T11:48:38.491Z,19.01
2023-10-30T11:51:06.355Z,19.10
2023-10-30T11:53:34.241Z,18.26
2023-10-30T11:56:02.675Z,17.99
2023-10-30T11:58:30.880Z,18.23
2023-10-30T12:00:59.891Z,18.69
2023-10-30T12:03:28.981Z,18.19
2023-10-30T12:05:56.581Z,18.07
2023-10-30T12:08:24.273Z,18.13
2023-10-30T12:10:51.922Z,18.35
2023-10-30T12:13:19.586Z,18.17
2023-10-30T12:15:47.682Z,17.80
2023-10-30T12:18:15.289Z,17.96
2023-10-30T12:20:44.221Z,17.89
2023-10-30T12:23:13.099Z,17.77
2023-10-30T12:25:40.690Z,18.20
2023-10-30T12:28:08.554Z,18.04
2023-10-30T12:30:37.267Z,18.03
2023-10-30T12:33:05.148Z,17.74
2023-10-30T12:35:35.147Z,18.06
2023-10-30T12:38:14.119Z,18.48
2023-10-30T12:40:45.488Z,17.70
2023-10-30T12:43:13.175Z,17.57
2023-10-30T12:45:41.288Z,17.73
2023-10-30T12:48:08.954Z,17.75
2023-10-30T12:50:36.762Z,17.63
2023-10-30T12:53:06.214Z,17.48
2023-10-30T12:55:33.811Z,17.81
2023-10-30T12:58:01.439Z,17.85
2023-10-30T13:00:29.095Z,17.53
2023-10-30T13:02:56.784Z,17.50
2023-10-30T13:05:24.495Z,17.36
2023-10-30T13:07:52.496Z,17.95
2023-10-30T13:10:21.629Z,18.01
2023-10-30T13:12:49.354Z,18.44
2023-10-30T13:15:17.204Z,18.18
2023-10-30T13:17:45.023Z,18.51
2023-10-30T13:20:12.755Z,18.45
2023-10-30T13:22:40.455Z,18.04
2023-10-30T13:25:09.259Z,18.00
2023-10-30T13:27:38.282Z,18.07
2023-10-30T13:30:06.965Z,18.14
2023-10-30T13:32:34.747Z,17.92
2023-10-30T13:35:02.390Z,18.11
2023-10-30T13:37:30.001Z,17.49
2023-10-30T13:39:57.673Z,17.32
2023-10-30T13:42:25.343Z,17.72
2023-10-30T13:44:54.309Z,17.78
2023-10-30T13:47:22.062Z,17.29
2023-10-30T13:49:49.917Z,16.97
2023-10-30T13:52:17.755Z,17.42
2023-10-30T13:54:47.906Z,17.44
2023-10-30T13:57:15.667Z,17.53
2023-10-30T13:59:43.258Z,17.61
2023-10-30T14:02:12.571Z,17.61
2023-10-30T14:04:40.753Z,17.62
2023-10-30T14:07:09.031Z,17.48
2023-10-30T14:09:36.714Z,17.03
2023-10-30T14:12:04.717Z,17.36
2023-10-30T14:14:32.292Z,17.25
2023-10-30T14:16:59.894Z,16.58
2023-10-30T14:19:28.837Z,16.96
2023-10-30T14:21:56.450Z,16.58
2023-10-30T14:24:24.071Z,16.78
2023-10-30T14:26:51.646Z,16.89
2023-10-30T14:29:19.341Z,16.69
2023-10-30T14:31:47.039Z,16.17
2023-10-30T14:34:14.807Z,16.44
2023-10-30T14:36:43.851Z,16.99
2023-10-30T14:39:12.632Z,17.21
2023-10-30T14:41:40.212Z,17.09
2023-10-30T14:44:08.166Z,17.11
2023-10-30T14:46:35.820Z,17.31
2023-10-30T14:49:03.599Z,16.88
2023-10-30T14:51:31.250Z,16.50
2023-10-30T14:54:00.171Z,16.46
2023-10-30T14:56:30.770Z,16.38
2023-10-30T14:58:58.972Z,16.78
2023-10-30T15:01:26.924Z,17.14
2023-10-30T15:03:54.588Z,16.34
2023-10-30T15:06:22.545Z,16.80
2023-10-30T15:08:50.390Z,16.99
2023-10-30T15:11:19.656Z,16.78
2023-10-30T15:13:47.317Z,16.92
2023-10-30T15:16:15.333Z,16.43
2023-10-30T15:18:43.010Z,16.52
2023-10-30T15:21:10.638Z,16.86
2023-10-30T15:23:41.029Z,16.41
2023-10-30T15:26:08.697Z,16.75
2023-10-30T15:28:37.676Z,16.85
2023-10-30T15:31:05.775Z,16.88
2023-10-30T15:33:33.463Z,16.94
2023-10-30T15:36:01.318Z,16.81
2023-10-30T15:38:29.042Z,15.81
2023-10-30T15:40:56.690Z,15.67
2023-10-30T15:43:24.329Z,16.28
2023-10-30T15:45:53.363Z,16.09
2023-10-30T15:48:21.185Z,15.81
2023-10-30T15:50:48.799Z,15.95
2023-10-30T16:00:54.199Z,16.09
2023-10-30T16:11:10.182Z,16.03
2023-10-30T16:13:41.580Z,16.51
2023-10-30T16:16:11.040Z,16.31
2023-10-30T16:19:13.990Z,15.93
2023-10-30T16:21:27.049Z,15.69
2023-10-30T16:23:54.950Z,15.66
2023-10-30T16:26:22.608Z,15.64
2023-10-30T16:28:50.212Z,15.92
2023-10-30T16:31:19.277Z,15.77
2023-10-30T16:33:46.927Z,15.72
2023-10-30T16:36:14.712Z,15.92
2023-10-30T16:38:42.295Z,15.76
2023-10-30T16:41:09.899Z,15.55
2023-10-30T16:43:37.487Z,15.31
2023-10-30T16:46:05.335Z,15.21
2023-10-30T16:48:34.319Z,15.28
2023-10-30T16:51:02.154Z,15.25
2023-10-30T16:53:29.767Z,15.13
2023-10-30T16:55:57.475Z,15.07
2023-10-30T16:58:25.115Z,14.89
2023-10-30T17:00:53.044Z,14.96
2023-10-30T17:03:20.788Z,14.84
2023-10-30T17:05:49.931Z,14.71
2023-10-30T17:08:17.651Z,14.75
2023-10-30T17:10:45.336Z,14.79
2023-10-30T17:13:13.080Z,14.90
2023-10-30T17:15:42.717Z,14.98
2023-10-30T17:18:10.401Z,14.95
2023-10-30T17:20:40.735Z,14.95
2023-10-30T17:23:09.684Z,15.09
2023-10-30T17:25:38.616Z,14.98
2023-10-30T17:28:06.282Z,14.97
2023-10-30T17:30:33.849Z,15.12
2023-10-30T17:33:01.513Z,15.11
2023-10-30T17:35:29.162Z,15.16
2023-10-30T17:37:57.805Z,15.19
2023-10-30T17:40:26.768Z,15.59
2023-10-30T17:42:54.373Z,15.63
2023-10-30T17:45:21.964Z,15.57
2023-10-30T17:47:49.604Z,15.56
2023-10-30T17:50:17.290Z,15.54
2023-10-30T17:52:44.952Z,15.37
2023-10-30T17:55:12.826Z,15.53
2023-10-30T17:57:41.812Z,15.45
2023-10-30T18:00:10.124Z,15.65
2023-10-30T18:02:37.756Z,15.65
2023-10-30T18:05:06.323Z,15.78
2023-10-30T18:07:34.031Z,15.75
2023-10-30T18:10:01.749Z,15.70
2023-10-30T18:12:29.350Z,15.77
2023-10-30T18:14:58.302Z,15.77
2023-10-30T18:17:27.558Z,15.51
2023-10-30T18:19:55.214Z,15.62
2023-10-30T18:22:23.894Z,15.51
2023-10-30T18:24:51.593Z,15.71
2023-10-30T18:27:19.199Z,15.84
2023-10-30T18:29:47.615Z,15.78
2023-10-30T18:32:16.620Z,15.75
2023-10-30T18:34:44.244Z,15.72
2023-10-30T18:37:11.846Z,16.01
2023-10-30T18:39:39.749Z,15.83
2023-10-30T18:42:07.819Z,15.71
2023-10-30T18:44:35.554Z,15.34
2023-10-30T18:47:03.221Z,15.52
2023-10-30T18:49:32.213Z,15.49
2023-10-30T18:51:59.853Z,15.66
2023-10-30T18:54:27.440Z,15.59
2023-10-30T18:56:55.030Z,15.42
2023-10-30T18:59:22.657Z,15.19
2023-10-30T19:01:50.313Z,15.18
2023-10-30T19:04:17.948Z,15.28
2023-10-30T19:06:46.909Z,15.64
2023-10-30T19:09:16.606Z,15.27
2023-10-30T19:11:45.666Z,15.20
2023-10-30T19:14:13.421Z,15.49
2023-10-30T19:16:41.758Z,15.47
2023-10-30T19:19:09.367Z,15.55
2023-10-30T19:21:36.967Z,15.91
2023-10-30T19:24:06.593Z,16.02
2023-10-30T19:26:34.238Z,16.00
2023-10-30T19:29:01.860Z,15.75
2023-10-30T19:31:29.505Z,15.68
2023-10-30T19:33:57.125Z,15.55
2023-10-30T19:36:24.731Z,15.69
2023-10-30T19:38:52.328Z,15.49
2023-10-30T19:41:21.328Z,15.45
2023-10-30T19:43:48.923Z,15.52
2023-10-30T19:46:21.573Z,15.62
2023-10-30T19:48:52.850Z,15.51
2023-10-30T19:51:20.488Z,15.81
2023-10-30T19:53:48.118Z,15.84
2023-10-30T19:56:15.722Z,15.71
2023-10-30T19:58:45.475Z,15.63
2023-10-30T20:01:13.151Z,15.82
2023-10-30T20:03:40.758Z,15.86
2023-10-30T20:06:08.613Z,16.24
2023-10-30T20:08:36.231Z,16.49
2023-10-30T20:11:04.061Z,16.64
2023-10-30T20:13:31.691Z,16.72
2023-10-30T20:16:00.825Z,16.88
2023-10-30T20:18:28.440Z,16.94
2023-10-30T20:20:56.005Z,16.79
2023-10-30T20:23:23.644Z,16.57
2023-10-30T20:25:51.305Z,16.39
2023-10-30T20:28:18.938Z,16.11
2023-10-30T20:30:46.557Z,15.88
2023-10-30T20:33:16.009Z,15.96
2023-10-30T20:35:43.841Z,15.71
2023-10-30T20:38:11.437Z,15.93
2023-10-30T20:40:40.990Z,15.51
2023-10-30T20:43:08.662Z,15.14
2023-10-30T20:45:36.269Z,14.68
2023-10-30T20:48:04.041Z,14.64
2023-10-30T20:50:33.046Z,15.06
2023-10-30T20:53:00.680Z,15.04
2023-10-30T20:55:28.352Z,15.34
2023-10-30T20:57:56.728Z,15.17
2023-10-30T21:00:24.372Z,14.92
2023-10-30T21:02:53.006Z,14.56
2023-10-30T21:05:21.062Z,14.59
2023-10-30T21:07:50.211Z,14.51
2023-10-30T21:10:18.543Z,14.64
2023-10-30T21:12:47.419Z,14.92
2023-10-30T21:15:15.006Z,15.06
2023-10-30T21:17:42.594Z,15.31
2023-10-30T21:20:11.212Z,15.63
2023-10-30T21:22:38.931Z,15.50
2023-10-30T21:25:09.379Z,15.15
2023-10-30T21:27:37.635Z,14.74
2023-10-30T21:30:06.680Z,14.44
2023-10-30T21:32:34.323Z,14.34
2023-10-30T21:35:01.938Z,13.88
2023-10-30T21:37:28.780Z,14.13
2023-10-30T21:39:58.660Z,14.10
2023-10-30T21:42:29.263Z,14.20
2023-10-30T21:44:57.018Z,13.87
2023-10-30T21:47:28.699Z,13.44
2023-10-30T21:49:58.558Z,13.36
2023-10-30T21:52:26.235Z,13.27
2023-10-30T21:54:54.820Z,13.25
2023-10-30T21:57:23.094Z,13.09
2023-10-30T21:59:52.090Z,12.72
2023-10-30T22:02:19.781Z,12.87
2023-10-30T22:04:47.488Z,12.80
2023-10-30T22:07:15.097Z,12.66
2023-10-30T22:09:42.718Z,12.54
2023-10-30T22:12:10.308Z,12.56
2023-10-30T22:14:37.932Z,12.54
2023-10-30T22:17:06.920Z,12.65
2023-10-30T22:19:34.563Z,12.99
2023-10-30T22:22:02.224Z,12.67
2023-10-30T22:24:29.925Z,12.56
2023-10-30T22:26:57.574Z,12.75
2023-10-30T22:29:25.161Z,12.88
2023-10-30T22:31:52.946Z,13.17
2023-10-30T22:34:21.884Z,13.08
2023-10-30T22:36:49.503Z,13.07
2023-10-30T22:39:17.146Z,12.99
2023-10-30T22:41:44.748Z,12.93
2023-10-30T22:44:12.338Z,12.63
2023-10-30T22:46:40.787Z,12.31
2023-10-30T22:49:08.630Z,12.38
2023-10-30T22:51:37.589Z,12.40
2023-10-30T22:54:05.409Z,12.35
2023-10-30T22:56:34.041Z,12.38
2023-10-30T22:59:01.695Z,12.37
2023-10-30T23:01:29.338Z,12.43
2023-10-30T23:03:57.238Z,12.56
2023-10-30T23:06:25.095Z,12.52
2023-10-30T23:08:54.094Z,12.89
2023-10-30T23:11:21.690Z,12.90
2023-10-30T23:13:49.356Z,13.11
2023-10-30T23:16:17.066Z,13.24
2023-10-30T23:18:44.717Z,13.11
2023-10-30T23:21:12.351Z,13.33
2023-10-30T23:23:40.861Z,13.22
2023-10-30T23:26:09.912Z,13.25
2023-10-30T23:28:37.621Z,13.54
2023-10-30T23:31:06.200Z,13.57
2023-10-30T23:33:33.859Z,13.30
2023-10-30T23:36:01.467Z,13.55
2023-10-30T23:38:29.147Z,13.76
2023-10-30T23:40:56.808Z,13.35
2023-10-30T23:43:27.402Z,13.32
2023-10-30T23:45:55.350Z,13.21
2023-10-30T23:48:22.978Z,13.53
2023-10-30T23:50:50.606Z,13.22
2023-10-30T23:53:18.197Z,13.10
2023-10-30T23:55:45.837Z,13.08
2023-10-30T23:58:13.456Z,12.57
